Time;durP1;ratioP1;P1;durP2;ratioP2;P2;SDS_P1;SDS_P2;PMS_P1;PMS_P2;Temp;Humidity;BMP_temperature;BMP_pressure;BME280_temperature;BME280_humidity;BME280_pressure;Samples;Min_cycle;Max_cycle;Signal;HPM_P1;HPM_P2
2021/06/25 00:02:05;;;;;;;0.57;0.37;;;19.30;99.90;;;;;;5087983;28;20212;-86
2021/06/25 00:04:31;;;;;;;0.60;0.60;;;19.20;99.90;;;;;;5087390;28;20230;-86
2021/06/25 00:06:56;;;;;;;0.40;0.40;;;19.00;99.90;;;;;;5110298;28;20187;-86
2021/06/25 00:09:22;;;;;;;0.23;0.23;;;19.10;99.90;;;;;;5121223;28;20215;-86
2021/06/25 00:11:48;;;;;;;0.50;0.30;;;19.10;99.90;;;;;;5089022;28;20669;-87
2021/06/25 00:14:20;;;;;;;0.90;0.47;;;19.00;99.90;;;;;;5085948;28;20189;-86
2021/06/25 00:16:45;;;;;;;0.50;0.50;;;18.90;99.90;;;;;;5121667;28;20653;-86
2021/06/25 00:19:11;;;;;;;0.30;0.30;;;18.80;99.90;;;;;;5121454;28;20197;-86
2021/06/25 00:21:37;;;;;;;1.27;0.80;;;18.80;99.90;;;;;;5121480;28;20655;-86
2021/06/25 00:24:02;;;;;;;0.37;0.37;;;18.70;99.90;;;;;;5087143;28;20234;-87
2021/06/25 00:26:28;;;;;;;0.60;0.40;;;18.80;99.90;;;;;;5121674;28;20185;-86
2021/06/25 00:28:54;;;;;;;0.67;0.67;;;18.80;99.90;;;;;;5087065;28;20274;-86
2021/06/25 00:31:19;;;;;;;1.20;1.17;;;18.80;99.90;;;;;;5087654;28;20656;-86
2021/06/25 00:33:45;;;;;;;0.37;0.37;;;18.80;99.90;;;;;;5112496;28;20687;-86
2021/06/25 00:36:10;;;;;;;1.53;1.43;;;18.90;99.90;;;;;;5098650;28;20213;-86
2021/06/25 00:38:36;;;;;;;0.43;0.40;;;18.80;99.90;;;;;;5107513;28;20193;-86
2021/06/25 00:41:02;;;;;;;0.43;0.27;;;18.50;99.90;;;;;;5073774;28;20200;-87
2021/06/25 00:43:27;;;;;;;0.80;0.73;;;18.70;99.90;;;;;;5074956;28;20296;-86
2021/06/25 00:45:53;;;;;;;0.30;0.30;;;18.80;99.90;;;;;;5074641;28;20268;-86
2021/06/25 00:48:19;;;;;;;2.20;0.97;;;18.80;99.90;;;;;;5073915;28;20177;-86
2021/06/25 00:50:44;;;;;;;1.10;0.97;;;18.90;99.90;;;;;;5075269;28;20252;-87
2021/06/25 00:53:11;;;;;;;0.70;0.70;;;18.50;99.90;;;;;;5074408;28;20261;-86
2021/06/25 00:55:43;;;;;;;0.37;0.37;;;18.60;99.90;;;;;;5075194;28;20214;-86
2021/06/25 00:58:14;;;;;;;1.60;0.90;;;18.60;99.90;;;;;;5074176;28;20192;-86
2021/06/25 01:00:46;;;;;;;0.60;0.60;;;18.40;99.90;;;;;;5071864;28;20184;-86
2021/06/25 01:03:13;;;;;;;1.77;0.57;;;18.40;99.90;;;;;;5072166;28;20211;-87
2021/06/25 01:05:40;;;;;;;0.30;0.30;;;18.30;99.90;;;;;;5073264;28;20180;-86
2021/06/25 01:08:07;;;;;;;0.80;0.50;;;18.30;99.90;;;;;;5072805;28;20238;-86
2021/06/25 01:10:37;;;;;;;0.40;0.33;;;18.40;99.90;;;;;;5107398;28;20181;-86
2021/06/25 01:13:05;;;;;;;0.90;0.80;;;18.40;99.90;;;;;;5074084;28;20204;-86
2021/06/25 01:15:31;;;;;;;0.63;0.63;;;18.10;99.90;;;;;;5074412;28;20554;-86
2021/06/25 01:17:56;;;;;;;1.77;0.77;;;18.00;99.90;;;;;;5073066;28;20185;-87
2021/06/25 01:20:28;;;;;;;0.20;0.20;;;17.80;99.90;;;;;;5106318;28;20308;-86
2021/06/25 01:22:54;;;;;;;0.40;0.40;;;17.90;99.90;;;;;;5071696;28;20437;-86
2021/06/25 01:25:26;;;;;;;1.20;0.77;;;18.00;99.90;;;;;;5074397;28;20173;-86
2021/06/25 01:27:57;;;;;;;0.80;0.80;;;18.00;99.90;;;;;;5074144;28;20179;-86
2021/06/25 01:30:29;;;;;;;0.70;0.67;;;17.90;99.90;;;;;;5073975;28;20176;-86
2021/06/25 01:32:56;;;;;;;0.50;0.50;;;17.90;99.90;;;;;;5072328;28;20228;-86
2021/06/25 01:35:22;;;;;;;0.53;0.50;;;18.00;99.90;;;;;;5072960;28;20273;-86
2021/06/25 01:37:48;;;;;;;1.13;0.80;;;17.90;99.90;;;;;;5106546;28;20183;-86
2021/06/25 01:40:16;;;;;;;0.20;0.20;;;18.00;99.90;;;;;;5106495;28;20264;-86
2021/06/25 01:42:43;;;;;;;1.17;0.83;;;17.90;99.90;;;;;;5094495;28;20558;-86
2021/06/25 01:45:20;;;;;;;1.23;0.93;;;17.90;99.90;;;;;;5071858;28;20184;-86
2021/06/25 01:47:48;;;;;;;1.07;0.97;;;17.90;99.90;;;;;;5072471;28;20184;-86
2021/06/25 01:50:23;;;;;;;0.67;0.67;;;17.60;99.90;;;;;;5106323;27;20188;-87
2021/06/25 01:52:55;;;;;;;0.80;0.80;;;17.60;99.90;;;;;;5069901;28;20262;-86
2021/06/25 01:55:21;;;;;;;1.33;0.87;;;17.40;99.90;;;;;;5106084;28;20207;-86
2021/06/25 01:57:47;;;;;;;1.27;1.10;;;17.20;99.90;;;;;;5073246;28;20180;-85
2021/06/25 02:00:27;;;;;;;1.23;1.10;;;17.20;99.90;;;;;;5071927;28;20237;-86
2021/06/25 02:02:52;;;;;;;2.67;1.00;;;17.30;99.90;;;;;;5067047;28;20212;-86
2021/06/25 02:05:18;;;;;;;0.90;0.87;;;17.20;99.90;;;;;;5106078;28;20674;-86
2021/06/25 02:07:44;;;;;;;1.30;1.30;;;17.30;99.90;;;;;;5072016;28;20627;-87
2021/06/25 02:10:11;;;;;;;0.67;0.67;;;17.20;99.90;;;;;;5073302;28;20175;-86
2021/06/25 02:12:37;;;;;;;5.30;2.47;;;17.20;99.90;;;;;;5071960;28;20683;-86
2021/06/25 02:15:06;;;;;;;1.03;1.03;;;17.20;99.90;;;;;;5105900;28;20185;-86
2021/06/25 02:17:31;;;;;;;1.13;0.87;;;17.20;99.90;;;;;;5105647;28;20237;-86
2021/06/25 02:19:57;;;;;;;1.53;1.13;;;17.40;99.90;;;;;;5105915;28;20196;-86
2021/06/25 02:22:23;;;;;;;0.40;0.40;;;17.50;99.90;;;;;;5071557;28;20688;-86
2021/06/25 02:24:48;;;;;;;1.73;1.13;;;17.60;99.90;;;;;;5105831;28;20191;-86
2021/06/25 02:27:14;;;;;;;1.00;0.93;;;17.70;99.90;;;;;;5068974;28;20196;-85
2021/06/25 02:29:40;;;;;;;1.30;1.10;;;17.70;99.90;;;;;;5103982;28;20191;-86
2021/06/25 02:32:06;;;;;;;1.60;0.87;;;17.70;99.90;;;;;;5070830;28;20240;-86
2021/06/25 02:34:32;;;;;;;1.37;1.13;;;17.80;99.90;;;;;;5063086;28;20189;-86
2021/06/25 02:36:58;;;;;;;0.70;0.70;;;17.90;99.90;;;;;;5105414;28;20198;-86
2021/06/25 02:39:24;;;;;;;0.97;0.87;;;17.90;99.90;;;;;;5105563;28;20672;-86
2021/06/25 02:41:50;;;;;;;1.40;1.10;;;17.90;99.90;;;;;;5105245;28;20768;-86
2021/06/25 02:44:16;;;;;;;1.50;1.40;;;17.90;99.90;;;;;;5072176;28;20187;-86
2021/06/25 02:46:41;;;;;;;1.77;1.37;;;17.90;99.90;;;;;;5105176;28;20716;-86
2021/06/25 02:49:07;;;;;;;1.83;1.30;;;17.90;99.90;;;;;;5071382;28;20183;-86
2021/06/25 02:51:32;;;;;;;4.10;1.10;;;17.90;99.90;;;;;;5105184;28;20215;-86
2021/06/25 02:53:58;;;;;;;2.20;1.23;;;17.90;99.90;;;;;;5104960;28;20187;-86
2021/06/25 02:56:24;;;;;;;0.73;0.73;;;17.90;99.90;;;;;;5072202;28;20193;-86
2021/06/25 02:58:50;;;;;;;0.80;0.80;;;17.90;99.90;;;;;;5066250;28;20219;-86
2021/06/25 03:01:15;;;;;;;1.07;0.80;;;17.90;99.90;;;;;;5068679;28;20238;-86
2021/06/25 03:03:41;;;;;;;0.77;0.77;;;17.90;99.90;;;;;;5071320;28;20645;-86
2021/06/25 03:06:07;;;;;;;3.77;1.87;;;17.90;99.90;;;;;;5071367;28;20193;-86
2021/06/25 03:08:32;;;;;;;1.27;1.17;;;18.00;99.90;;;;;;5080146;28;20249;-86
2021/06/25 03:11:00;;;;;;;1.83;1.70;;;17.90;99.90;;;;;;5076253;28;20186;-86
2021/06/25 03:13:26;;;;;;;1.97;1.87;;;17.90;99.90;;;;;;5065187;28;20208;-86
2021/06/25 03:15:52;;;;;;;0.97;0.93;;;17.90;99.90;;;;;;5071384;28;20212;-86
2021/06/25 03:18:18;;;;;;;1.57;1.27;;;17.90;99.90;;;;;;5104745;28;20252;-86
2021/06/25 03:20:44;;;;;;;1.47;1.37;;;17.90;99.90;;;;;;5105301;28;20180;-86
2021/06/25 03:23:10;;;;;;;1.90;1.20;;;17.80;99.90;;;;;;5064761;28;20276;-86
2021/06/25 03:25:36;;;;;;;2.57;1.17;;;17.70;99.90;;;;;;5068734;28;20186;-86
2021/06/25 03:28:03;;;;;;;1.80;1.27;;;17.50;99.90;;;;;;5060277;28;20733;-86
2021/06/25 03:30:28;;;;;;;3.93;2.27;;;17.30;99.90;;;;;;5104992;28;20188;-86
2021/06/25 03:32:54;;;;;;;1.93;1.63;;;17.30;99.90;;;;;;5072236;28;20267;-86
2021/06/25 03:35:20;;;;;;;0.87;0.87;;;17.30;99.90;;;;;;5072240;28;20184;-86
2021/06/25 03:37:45;;;;;;;1.87;1.77;;;17.40;99.90;;;;;;5070744;28;20243;-86
2021/06/25 03:40:14;;;;;;;2.83;1.50;;;17.40;99.90;;;;;;5092764;28;20191;-85
2021/06/25 03:42:43;;;;;;;2.07;1.37;;;17.30;99.90;;;;;;5071789;28;20696;-85
2021/06/25 03:45:13;;;;;;;1.33;1.23;;;17.30;99.90;;;;;;5065165;28;20190;-88
2021/06/25 03:47:40;;;;;;;1.53;1.43;;;17.30;99.90;;;;;;5059802;28;20188;-86
2021/06/25 03:50:07;;;;;;;1.73;1.63;;;17.40;99.90;;;;;;5070270;28;20192;-90
2021/06/25 03:52:36;;;;;;;2.47;1.60;;;17.40;99.90;;;;;;5066901;28;20299;-85
2021/06/25 03:55:04;;;;;;;1.37;1.00;;;17.50;99.90;;;;;;5067813;28;20192;-86
2021/06/25 03:57:29;;;;;;;3.13;1.60;;;17.50;99.90;;;;;;5069314;28;20185;-86
2021/06/25 03:59:55;;;;;;;2.20;1.90;;;17.50;99.90;;;;;;5057818;28;20204;-86
2021/06/25 04:02:20;;;;;;;1.53;1.43;;;17.60;99.90;;;;;;5103689;28;20231;-86
2021/06/25 04:04:46;;;;;;;4.87;1.93;;;17.60;99.90;;;;;;5101175;28;20263;-85
2021/06/25 04:07:12;;;;;;;2.13;2.00;;;17.50;99.90;;;;;;5071436;28;20196;-85
2021/06/25 04:09:37;;;;;;;3.10;2.07;;;17.40;99.90;;;;;;5107520;28;20184;-85
2021/06/25 04:12:03;;;;;;;1.33;1.23;;;17.30;99.90;;;;;;5069800;28;20265;-85
2021/06/25 04:14:29;;;;;;;3.47;2.00;;;17.30;99.90;;;;;;5075122;28;20238;-86
2021/06/25 04:16:56;;;;;;;2.23;1.27;;;17.40;99.90;;;;;;5075250;28;20223;-85
2021/06/25 04:19:22;;;;;;;2.73;2.53;;;17.30;99.90;;;;;;5075125;28;20238;-86
2021/06/25 04:21:48;;;;;;;3.27;2.10;;;17.40;99.90;;;;;;5073820;28;20225;-86
2021/06/25 04:24:13;;;;;;;3.13;1.53;;;17.40;99.90;;;;;;5073614;28;20188;-85
2021/06/25 04:26:39;;;;;;;4.60;2.30;;;17.80;99.90;;;;;;5065107;28;20215;-86
2021/06/25 04:29:10;;;;;;;1.47;1.37;;;18.10;99.90;;;;;;5107392;28;20192;-85
2021/06/25 04:31:36;;;;;;;2.37;1.60;;;18.40;99.90;;;;;;5066111;28;20303;-85
2021/06/25 04:34:02;;;;;;;1.63;1.50;;;18.60;99.90;;;;;;5068754;28;20276;-86
2021/06/25 04:36:28;;;;;;;2.27;2.07;;;18.80;99.90;;;;;;5072227;28;20186;-85
2021/06/25 04:38:53;;;;;;;1.70;1.27;;;18.70;99.90;;;;;;5074641;28;20199;-86
2021/06/25 04:41:19;;;;;;;2.83;2.30;;;18.90;99.90;;;;;;5107078;28;20204;-86
2021/06/25 04:43:45;;;;;;;0.70;0.63;;;19.10;99.90;;;;;;5105242;28;20189;-85
2021/06/25 04:46:12;;;;;;;2.40;1.90;;;19.30;99.90;;;;;;5074124;28;20243;-85
2021/06/25 04:48:37;;;;;;;2.37;2.17;;;19.30;99.90;;;;;;5072722;28;20213;-85
2021/06/25 04:51:03;;;;;;;4.03;2.07;;;19.30;99.90;;;;;;5068411;28;20272;-85
2021/06/25 04:53:29;;;;;;;3.37;2.30;;;19.00;99.90;;;;;;5071349;28;20948;-85
2021/06/25 04:56:04;;;;;;;3.40;3.07;;;19.00;99.90;;;;;;5074476;28;20216;-85
2021/06/25 04:58:30;;;;;;;3.17;2.63;;;18.90;99.90;;;;;;5074251;28;20187;-86
2021/06/25 05:00:59;;;;;;;3.37;2.00;;;18.50;99.90;;;;;;5115844;27;20187;-85
2021/06/25 05:03:25;;;;;;;1.17;1.17;;;18.50;99.90;;;;;;5072871;28;20732;-85
2021/06/25 05:05:51;;;;;;;4.97;3.77;;;18.60;99.90;;;;;;5072947;28;20199;-86
2021/06/25 05:08:16;;;;;;;2.53;2.33;;;17.90;99.90;;;;;;5074171;28;20192;-85
2021/06/25 05:10:42;;;;;;;3.47;2.70;;;17.80;99.90;;;;;;5099485;28;20185;-84
2021/06/25 05:13:10;;;;;;;2.40;2.23;;;17.70;99.90;;;;;;5073220;28;20200;-84
2021/06/25 05:15:36;;;;;;;3.13;2.30;;;17.80;99.90;;;;;;5094558;28;20209;-85
2021/06/25 05:18:15;;;;;;;3.30;2.17;;;17.80;99.90;;;;;;5106805;28;20673;-84
2021/06/25 05:20:43;;;;;;;2.20;1.73;;;18.00;99.90;;;;;;5072490;28;20183;-83
2021/06/25 05:23:10;;;;;;;2.60;1.77;;;18.20;99.90;;;;;;5097738;28;20247;-84
2021/06/25 05:25:36;;;;;;;3.83;2.43;;;18.30;99.90;;;;;;5074314;28;20291;-84
2021/06/25 05:28:02;;;;;;;1.63;1.43;;;18.30;99.90;;;;;;5066802;28;20181;-86
2021/06/25 05:30:28;;;;;;;4.60;2.90;;;18.60;99.90;;;;;;5069688;28;20188;-86
2021/06/25 05:32:54;;;;;;;1.90;1.80;;;18.30;99.90;;;;;;5100548;28;20249;-85
2021/06/25 05:35:20;;;;;;;3.40;1.97;;;18.50;99.90;;;;;;5072311;28;20224;-86
2021/06/25 05:37:46;;;;;;;2.17;1.37;;;18.80;99.90;;;;;;5105328;28;20585;-86
2021/06/25 05:40:12;;;;;;;4.17;2.43;;;19.30;99.90;;;;;;5113319;27;20187;-86
2021/06/25 05:42:38;;;;;;;5.20;3.23;;;19.40;99.90;;;;;;5066061;28;20219;-86
2021/06/25 05:45:04;;;;;;;3.10;2.30;;;19.30;99.90;;;;;;5069560;28;20181;-86
2021/06/25 05:47:30;;;;;;;3.63;2.83;;;19.10;99.90;;;;;;5071724;28;20188;-86
2021/06/25 05:49:56;;;;;;;1.83;1.63;;;19.00;99.90;;;;;;5072013;28;20529;-85
2021/06/25 05:52:23;;;;;;;3.63;2.57;;;19.00;99.90;;;;;;5067954;28;20626;-86
2021/06/25 05:54:49;;;;;;;1.63;1.53;;;19.00;99.90;;;;;;5064672;28;20185;-86
2021/06/25 05:57:15;;;;;;;1.63;1.53;;;18.90;99.90;;;;;;5105368;28;20195;-87
2021/06/25 05:59:40;;;;;;;3.20;1.80;;;18.70;99.90;;;;;;5072847;28;20200;-86
2021/06/25 06:02:06;;;;;;;2.83;1.80;;;18.60;99.90;;;;;;5104326;28;20222;-86
2021/06/25 06:04:32;;;;;;;4.80;2.60;;;18.70;99.90;;;;;;5070673;28;20176;-85
2021/06/25 06:06:58;;;;;;;2.77;2.13;;;18.90;99.90;;;;;;5102512;28;20189;-85
2021/06/25 06:09:24;;;;;;;3.13;2.00;;;18.60;99.90;;;;;;5071619;28;20527;-86
2021/06/25 06:11:49;;;;;;;2.60;2.40;;;18.90;99.90;;;;;;5075258;28;20216;-86
2021/06/25 06:14:15;;;;;;;4.50;2.90;;;19.00;99.90;;;;;;5065726;28;20195;-86
2021/06/25 06:16:40;;;;;;;6.40;3.07;;;19.30;99.90;;;;;;5104848;28;20718;-86
2021/06/25 06:19:08;;;;;;;3.13;2.03;;;19.50;99.90;;;;;;5103422;27;20185;-86
2021/06/25 06:35:30;;;;;;;1.50;1.40;;;20.10;99.90;;;;;;5055432;28;20426;-84
2021/06/25 06:38:01;;;;;;;2.87;2.37;;;19.80;99.90;;;;;;5079600;28;20688;-84
2021/06/25 06:40:28;;;;;;;3.00;1.80;;;19.80;99.90;;;;;;5075158;28;20269;-83
2021/06/25 06:42:54;;;;;;;7.57;2.77;;;19.70;99.90;;;;;;5074638;28;20210;-83
2021/06/25 06:45:21;;;;;;;5.70;1.57;;;19.30;99.90;;;;;;5076686;28;20184;-83
2021/06/25 06:47:47;;;;;;;7.50;2.63;;;19.20;99.90;;;;;;5067310;28;20174;-84
2021/06/25 06:50:14;;;;;;;3.37;2.93;;;18.90;99.90;;;;;;5106672;28;20650;-84
2021/06/25 06:52:50;;;;;;;2.77;2.57;;;18.80;99.90;;;;;;5085335;28;20217;-84
2021/06/25 06:55:22;;;;;;;3.10;2.17;;;18.90;99.90;;;;;;5076746;28;20741;-83
2021/06/25 06:57:49;;;;;;;2.57;2.00;;;19.00;99.90;;;;;;5080273;28;20181;-83
2021/06/25 07:00:15;;;;;;;5.27;2.60;;;19.10;99.90;;;;;;5102387;28;20224;-84
2021/06/25 07:02:43;;;;;;;3.27;2.33;;;19.30;99.90;;;;;;5079126;28;20240;-85
2021/06/25 07:05:10;;;;;;;3.33;2.67;;;19.30;99.90;;;;;;5072950;28;20194;-84
2021/06/25 07:07:37;;;;;;;5.63;2.80;;;19.50;99.90;;;;;;5073951;28;20188;-84
2021/06/25 07:10:05;;;;;;;3.40;2.47;;;19.40;99.90;;;;;;5070975;28;20184;-84
2021/06/25 07:12:33;;;;;;;3.13;2.73;;;19.40;99.90;;;;;;5069671;28;20220;-86
2021/06/25 07:14:59;;;;;;;8.57;2.53;;;19.30;99.90;;;;;;5065475;28;20222;-86
2021/06/25 07:17:24;;;;;;;3.30;2.57;;;19.40;99.90;;;;;;5072975;28;20193;-85
2021/06/25 07:19:52;;;;;;;2.57;2.37;;;19.20;99.90;;;;;;5068925;28;20219;-85
2021/06/25 07:22:18;;;;;;;4.87;2.77;;;19.30;99.90;;;;;;5071092;28;20216;-86
2021/06/25 07:24:43;;;;;;;3.03;2.20;;;19.50;99.90;;;;;;5069722;28;20181;-85
2021/06/25 07:27:09;;;;;;;2.73;2.53;;;19.50;99.90;;;;;;5099642;28;20181;-85
2021/06/25 07:29:35;;;;;;;2.40;2.10;;;19.60;99.90;;;;;;5068693;28;20180;-86
2021/06/25 07:32:01;;;;;;;1.97;1.87;;;19.40;99.90;;;;;;5070325;28;20229;-85
2021/06/25 07:34:26;;;;;;;5.57;3.60;;;19.30;99.90;;;;;;5072327;28;20192;-85
2021/06/25 07:36:52;;;;;;;4.03;2.33;;;19.30;99.90;;;;;;5071779;28;20197;-85
2021/06/25 07:39:18;;;;;;;3.77;3.30;;;19.10;99.90;;;;;;5071971;28;20177;-86
2021/06/25 07:41:44;;;;;;;7.37;3.33;;;18.90;99.90;;;;;;5071680;28;20214;-85
2021/06/25 07:44:10;;;;;;;2.47;1.97;;;18.60;99.90;;;;;;5074377;28;20189;-85
2021/06/25 07:46:35;;;;;;;6.57;3.30;;;18.90;99.90;;;;;;5075577;28;20187;-86
2021/06/25 07:49:01;;;;;;;3.53;2.87;;;18.50;99.90;;;;;;5074823;28;20184;-85
2021/06/25 07:51:27;;;;;;;3.10;1.33;;;18.60;99.90;;;;;;5075761;28;20905;-85
2021/06/25 07:53:53;;;;;;;3.10;2.60;;;18.90;99.90;;;;;;5075546;28;20541;-85
2021/06/25 07:56:20;;;;;;;3.63;3.00;;;18.70;99.90;;;;;;5075739;28;20561;-86
2021/06/25 07:58:45;;;;;;;2.40;1.97;;;18.60;99.90;;;;;;5074374;28;20238;-84
2021/06/25 08:01:11;;;;;;;2.43;2.23;;;18.70;99.90;;;;;;5107762;28;20192;-85
2021/06/25 08:03:37;;;;;;;6.40;3.07;;;18.70;99.90;;;;;;5074338;28;20671;-85
2021/06/25 08:06:02;;;;;;;4.73;3.03;;;18.40;99.90;;;;;;5073568;28;20195;-83
2021/06/25 08:08:28;;;;;;;2.17;1.97;;;18.40;99.90;;;;;;5071820;28;20274;-85
2021/06/25 08:10:54;;;;;;;9.33;5.73;;;18.60;99.90;;;;;;5073513;28;20187;-85
2021/06/25 08:13:20;;;;;;;13.37;6.03;;;18.40;99.90;;;;;;5074118;28;20688;-85
2021/06/25 08:15:49;;;;;;;4.33;3.40;;;18.20;99.90;;;;;;5073102;28;20208;-86
2021/06/25 08:18:18;;;;;;;5.27;3.90;;;18.30;99.90;;;;;;5107440;28;20197;-86
2021/06/25 08:20:45;;;;;;;4.27;2.90;;;18.60;99.90;;;;;;5073581;28;20183;-85
2021/06/25 08:23:12;;;;;;;3.63;3.03;;;18.50;99.90;;;;;;5074632;28;20226;-85
2021/06/25 08:25:38;;;;;;;3.03;2.73;;;18.80;99.90;;;;;;5106959;28;20184;-84
2021/06/25 08:28:04;;;;;;;6.27;3.93;;;18.80;99.90;;;;;;5078508;28;20578;-85
2021/06/25 08:30:30;;;;;;;5.47;4.67;;;18.90;99.90;;;;;;5074139;28;20260;-85
2021/06/25 08:32:56;;;;;;;7.40;5.13;;;18.80;99.90;;;;;;5073235;28;20220;-85
2021/06/25 08:35:22;;;;;;;5.63;4.07;;;18.70;99.90;;;;;;5071318;28;20567;-85
2021/06/25 08:37:49;;;;;;;4.23;2.57;;;18.30;99.90;;;;;;5096158;28;20674;-84
2021/06/25 08:40:16;;;;;;;2.60;2.20;;;18.60;99.90;;;;;;5104391;28;20211;-85
2021/06/25 08:42:42;;;;;;;5.87;2.90;;;18.80;99.90;;;;;;5106680;28;20269;-84
2021/06/25 08:45:09;;;;;;;4.10;2.17;;;18.70;99.90;;;;;;5070229;28;20188;-85
2021/06/25 08:47:40;;;;;;;4.97;2.23;;;19.10;99.90;;;;;;5106601;28;20181;-85
2021/06/25 08:50:08;;;;;;;5.57;4.93;;;19.20;99.90;;;;;;5107317;28;20204;-85
2021/06/25 08:52:34;;;;;;;4.17;2.53;;;19.00;99.90;;;;;;5070972;28;20243;-85
2021/06/25 08:55:00;;;;;;;4.37;2.87;;;19.10;99.90;;;;;;5106596;28;20201;-85
2021/06/25 08:57:26;;;;;;;2.47;2.27;;;19.60;99.90;;;;;;5067811;28;20207;-86
2021/06/25 08:59:52;;;;;;;3.57;2.23;;;19.90;99.90;;;;;;5071343;28;20707;-86
2021/06/25 09:02:36;;;;;;;2.53;2.03;;;20.00;99.90;;;;;;5074148;28;20322;-86
2021/06/25 09:05:29;;;;;;;2.13;1.30;;;20.40;99.90;;;;;;5074389;28;20185;-85
2021/06/25 09:07:57;;;;;;;1.60;1.50;;;20.80;99.90;;;;;;5082414;28;20229;-86
2021/06/25 09:10:39;;;;;;;2.77;1.63;;;20.90;99.90;;;;;;5106793;28;20188;-86
2021/06/25 09:13:09;;;;;;;2.07;1.60;;;21.00;99.90;;;;;;5073405;28;20292;-86
2021/06/25 09:15:37;;;;;;;3.10;1.80;;;21.20;99.90;;;;;;5106782;28;20196;-86
2021/06/25 09:18:05;;;;;;;2.63;1.40;;;21.40;99.90;;;;;;5071695;28;20195;-86
2021/06/25 09:20:42;;;;;;;2.17;1.90;;;21.40;99.90;;;;;;5068148;28;20185;-86
2021/06/25 09:23:21;;;;;;;1.67;1.57;;;21.40;99.90;;;;;;5061123;28;20262;-86
2021/06/25 09:26:06;;;;;;;1.67;1.50;;;21.90;99.90;;;;;;5074889;28;20180;-86
2021/06/25 09:28:43;;;;;;;3.87;1.50;;;22.20;99.90;;;;;;5065966;28;20646;-86
2021/06/25 09:31:18;;;;;;;2.23;1.97;;;22.50;99.90;;;;;;5067479;28;20181;-86
2021/06/25 09:33:57;;;;;;;3.23;1.90;;;22.60;99.90;;;;;;5072424;28;20196;-85
2021/06/25 09:36:33;;;;;;;2.40;1.77;;;22.60;99.90;;;;;;5072677;28;20197;-86
2021/06/25 09:39:05;;;;;;;1.13;1.10;;;23.10;99.90;;;;;;5072352;28;20719;-86
2021/06/25 09:41:31;;;;;;;2.07;1.40;;;23.50;99.90;;;;;;5105526;28;20610;-86
2021/06/25 09:43:57;;;;;;;3.43;2.40;;;23.10;99.90;;;;;;5073405;28;20192;-85
2021/06/25 09:46:30;;;;;;;3.53;3.23;;;23.20;99.90;;;;;;5072504;28;20256;-86
2021/06/25 09:48:58;;;;;;;2.37;1.77;;;23.60;99.90;;;;;;5072824;28;20173;-86
2021/06/25 09:51:24;;;;;;;4.20;2.33;;;23.60;99.90;;;;;;5070563;28;20234;-85
2021/06/25 09:54:22;;;;;;;1.73;1.63;;;23.70;99.90;;;;;;5106527;22;20306;-82
2021/06/25 10:02:24;;;;;;;2.67;2.47;;;23.10;99.90;;;;;;5091588;28;20295;-83
2021/06/25 10:05:10;;;;;;;5.43;2.83;;;23.50;99.90;;;;;;5074261;28;20180;-83
2021/06/25 10:07:36;;;;;;;3.83;2.27;;;23.50;99.90;;;;;;5066821;28;20183;-82
2021/06/25 10:10:10;;;;;;;2.73;2.03;;;23.60;99.90;;;;;;5043002;28;20180;-83
2021/06/25 10:12:38;;;;;;;1.60;1.50;;;23.70;99.90;;;;;;5068740;28;20196;-83
2021/06/25 10:15:04;;;;;;;1.67;1.37;;;23.50;99.90;;;;;;5058537;28;20180;-83
2021/06/25 10:17:30;;;;;;;1.73;1.63;;;23.70;99.90;;;;;;5072060;28;20259;-82
2021/06/25 10:20:08;;;;;;;1.83;0.93;;;23.90;99.90;;;;;;5054977;28;20690;-83
2021/06/25 10:22:36;;;;;;;1.30;1.17;;;24.10;99.90;;;;;;5069630;28;20204;-83
2021/06/25 10:25:04;;;;;;;1.37;1.27;;;24.00;99.90;;;;;;5070188;28;20537;-83
2021/06/25 10:27:30;;;;;;;2.57;2.10;;;23.90;99.90;;;;;;5045431;28;20181;-82
2021/06/25 10:29:58;;;;;;;4.63;1.23;;;24.00;99.90;;;;;;5043317;28;20641;-83
2021/06/25 10:32:24;;;;;;;0.80;0.80;;;24.30;99.90;;;;;;5049450;28;20197;-83
2021/06/25 10:34:50;;;;;;;1.37;1.23;;;24.60;99.90;;;;;;5043630;28;20181;-82
2021/06/25 10:37:28;;;;;;;2.13;1.93;;;24.70;99.90;;;;;;5067153;28;20672;-82
2021/06/25 10:39:54;;;;;;;2.57;1.70;;;24.10;99.90;;;;;;5053255;28;20184;-81
2021/06/25 10:42:19;;;;;;;2.57;1.63;;;24.30;99.90;;;;;;5045404;28;20566;-83
2021/06/25 10:44:51;;;;;;;1.77;1.60;;;24.70;99.90;;;;;;5052458;28;20864;-83
2021/06/25 10:47:23;;;;;;;2.70;1.93;;;24.40;99.90;;;;;;5075211;28;20195;-83
2021/06/25 10:50:01;;;;;;;2.00;1.73;;;24.70;99.90;;;;;;5057988;28;20189;-83
2021/06/25 10:52:30;;;;;;;1.87;1.77;;;25.10;99.90;;;;;;5064270;28;20204;-84
2021/06/25 10:55:16;;;;;;;2.13;1.37;;;25.10;99.90;;;;;;5045641;28;20188;-83
2021/06/25 10:57:50;;;;;;;2.43;2.23;;;25.10;99.90;;;;;;5071439;28;20231;-84
2021/06/25 11:00:30;;;;;;;1.30;1.30;;;24.90;99.90;;;;;;5070365;28;20659;-82
2021/06/25 11:02:56;;;;;;;1.07;0.87;;;25.10;99.90;;;;;;5050703;28;20292;-83
2021/06/25 11:05:21;;;;;;;2.80;1.93;;;25.50;99.90;;;;;;5071696;28;20177;-83
2021/06/25 11:07:50;;;;;;;2.43;1.70;;;25.60;99.90;;;;;;5069638;28;20260;-83
2021/06/25 11:10:26;;;;;;;0.93;0.93;;;25.90;99.90;;;;;;5049821;28;20381;-84
2021/06/25 11:13:13;;;;;;;2.07;1.17;;;25.80;99.90;;;;;;5056005;28;20672;-83
2021/06/25 11:15:47;;;;;;;1.83;1.73;;;25.70;99.90;;;;;;5068547;28;20291;-83
2021/06/25 11:18:17;;;;;;;1.57;1.47;;;25.00;99.90;;;;;;5064689;28;20208;-83
2021/06/25 11:20:58;;;;;;;2.33;1.40;;;25.10;99.90;;;;;;5062502;28;20218;-84
2021/06/25 11:23:27;;;;;;;2.93;2.27;;;25.80;99.90;;;;;;5047204;28;20208;-83
2021/06/25 11:26:04;;;;;;;2.20;1.87;;;26.40;99.90;;;;;;5043475;28;20180;-83
2021/06/25 11:28:46;;;;;;;2.40;1.50;;;26.60;99.90;;;;;;5054436;28;20176;-83
2021/06/25 11:31:15;;;;;;;1.63;1.20;;;27.10;99.90;;;;;;5069969;28;20227;-81
2021/06/25 11:33:59;;;;;;;1.03;1.03;;;27.00;99.90;;;;;;5045810;28;20236;-85
2021/06/25 11:36:28;;;;;;;2.13;1.60;;;26.40;99.90;;;;;;5070124;28;20207;-83
2021/06/25 11:39:00;;;;;;;1.50;1.07;;;26.30;99.90;;;;;;5050192;28;20180;-83
2021/06/25 11:41:39;;;;;;;1.33;1.23;;;26.60;99.90;;;;;;5068668;28;20606;-83
2021/06/25 11:44:17;;;;;;;2.37;1.97;;;26.60;99.90;;;;;;5067567;28;20205;-83
2021/06/25 11:46:52;;;;;;;1.53;1.40;;;26.20;99.90;;;;;;5062930;28;20188;-82
2021/06/25 11:49:18;;;;;;;1.70;1.60;;;25.90;99.90;;;;;;5042506;28;20188;-83
2021/06/25 11:51:45;;;;;;;1.00;0.97;;;25.80;99.90;;;;;;5070361;28;20189;-82
2021/06/25 11:54:17;;;;;;;1.40;1.30;;;25.90;99.90;;;;;;5060283;28;20304;-81
2021/06/25 11:56:47;;;;;;;3.13;2.80;;;26.10;99.90;;;;;;5064721;28;20215;-82
2021/06/25 11:59:14;;;;;;;2.83;2.00;;;25.80;99.90;;;;;;5050427;28;20250;-83
2021/06/25 12:01:58;;;;;;;3.60;1.40;;;25.80;99.90;;;;;;5069744;28;20212;-82
2021/06/25 12:04:53;;;;;;;1.47;1.27;;;26.20;99.90;;;;;;5047753;28;20235;-83
2021/06/25 12:07:20;;;;;;;1.13;0.87;;;26.40;99.90;;;;;;5032597;28;20193;-81
2021/06/25 12:09:52;;;;;;;1.77;1.20;;;26.50;99.90;;;;;;5068176;28;20173;-82
2021/06/25 12:12:19;;;;;;;3.90;1.23;;;26.40;99.90;;;;;;5051127;28;20542;-81
2021/06/25 12:14:53;;;;;;;1.30;1.20;;;26.50;99.90;;;;;;5050583;28;20193;-83
2021/06/25 12:17:20;;;;;;;1.60;1.07;;;26.40;99.90;;;;;;5064370;28;20181;-82
2021/06/25 12:19:57;;;;;;;3.80;1.63;;;26.50;99.90;;;;;;5051232;28;20678;-83
2021/06/25 12:22:23;;;;;;;2.13;1.83;;;26.10;99.90;;;;;;5067439;28;20593;-83
2021/06/25 12:24:51;;;;;;;1.63;1.53;;;26.00;99.90;;;;;;5043417;28;20192;-82
2021/06/25 12:27:17;;;;;;;2.57;1.73;;;26.10;99.90;;;;;;5069861;28;20231;-83
2021/06/25 12:29:46;;;;;;;1.43;1.33;;;26.40;99.90;;;;;;5057519;28;20705;-83
2021/06/25 12:32:20;;;;;;;1.33;1.20;;;26.40;99.90;;;;;;5070999;28;20272;-83
2021/06/25 12:34:56;;;;;;;2.50;1.17;;;26.40;99.90;;;;;;5069423;28;20632;-83
2021/06/25 12:37:22;;;;;;;3.70;1.60;;;26.30;99.90;;;;;;5069540;28;20810;-84
2021/06/25 12:39:47;;;;;;;2.43;1.80;;;26.30;99.90;;;;;;5071221;28;20189;-80
2021/06/25 12:42:22;;;;;;;1.87;1.67;;;26.40;99.90;;;;;;5067510;28;20203;-82
2021/06/25 12:44:49;;;;;;;1.53;1.43;;;26.30;99.90;;;;;;5047572;28;20181;-82
2021/06/25 12:47:15;;;;;;;1.83;1.33;;;26.40;99.90;;;;;;5065624;28;20272;-82
2021/06/25 12:49:41;;;;;;;2.13;1.47;;;26.60;99.90;;;;;;5066198;28;20230;-81
2021/06/25 12:52:24;;;;;;;1.63;1.50;;;26.80;99.90;;;;;;5050351;28;20653;-82
2021/06/25 12:54:50;;;;;;;2.93;2.30;;;26.70;99.90;;;;;;5069999;28;20187;-82
2021/06/25 12:57:18;;;;;;;2.27;2.17;;;26.30;99.90;;;;;;5055310;28;20208;-82
2021/06/25 12:59:47;;;;;;;1.80;1.70;;;26.00;99.90;;;;;;5078541;28;20181;-82
2021/06/25 13:02:13;;;;;;;2.17;1.10;;;25.80;99.90;;;;;;5052626;28;20213;-82
2021/06/25 13:04:41;;;;;;;1.93;1.83;;;25.80;99.90;;;;;;5071857;28;20184;-82
2021/06/25 13:07:07;;;;;;;1.77;1.67;;;25.60;99.90;;;;;;5061937;28;20211;-82
2021/06/25 13:09:40;;;;;;;1.23;1.13;;;25.20;99.90;;;;;;5054220;28;20177;-83
2021/06/25 13:12:14;;;;;;;1.23;1.13;;;25.10;99.90;;;;;;5057847;28;20185;-83
2021/06/25 13:14:47;;;;;;;1.87;1.77;;;24.90;99.90;;;;;;5070022;28;20223;-83